sensor_id;sensor_type;location;lat;lon;timestamp;P1;durP1;ratioP1;P2;durP2;ratioP2
13743;SDS011;6943;52.368;9.966;2022-10-12T00:01:51;9.33;;;5.27;;
13743;SDS011;6943;52.368;9.966;2022-10-12T00:04:17;10.10;;;5.63;;
13743;SDS011;6943;52.368;9.966;2022-10-12T00:06:42;10.77;;;5.70;;
13743;SDS011;6943;52.368;9.966;2022-10-12T00:09:08;9.40;;;5.50;;
13743;SDS011;6943;52.368;9.966;2022-10-12T00:11:33;10.83;;;5.00;;
13743;SDS011;6943;52.368;9.966;2022-10-12T00:13:59;10.50;;;5.50;;
13743;SDS011;6943;52.368;9.966;2022-10-12T00:16:25;9.17;;;5.20;;
13743;SDS011;6943;52.368;9.966;2022-10-12T00:18:55;8.80;;;4.80;;
13743;SDS011;6943;52.368;9.966;2022-10-12T00:21:22;8.40;;;5.23;;
13743;SDS011;6943;52.368;9.966;2022-10-12T00:23:49;8.00;;;4.87;;
13743;SDS011;6943;52.368;9.966;2022-10-12T00:26:21;8.17;;;4.87;;
13743;SDS011;6943;52.368;9.966;2022-10-12T00:28:48;9.53;;;4.80;;
13743;SDS011;6943;52.368;9.966;2022-10-12T00:31:18;9.80;;;4.93;;
13743;SDS011;6943;52.368;9.966;2022-10-12T00:33:45;8.73;;;4.67;;
13743;SDS011;6943;52.368;9.966;2022-10-12T00:36:18;9.20;;;5.00;;
13743;SDS011;6943;52.368;9.966;2022-10-12T00:38:49;8.60;;;4.20;;
13743;SDS011;6943;52.368;9.966;2022-10-12T00:41:16;7.37;;;4.63;;
13743;SDS011;6943;52.368;9.966;2022-10-12T00:43:43;6.50;;;4.47;;
13743;SDS011;6943;52.368;9.966;2022-10-12T00:46:20;9.50;;;4.57;;
13743;SDS011;6943;52.368;9.966;2022-10-12T00:48:54;7.80;;;4.17;;
13743;SDS011;6943;52.368;9.966;2022-10-12T00:51:28;6.07;;;4.20;;
13743;SDS011;6943;52.368;9.966;2022-10-12T00:53:57;9.70;;;3.97;;
13743;SDS011;6943;52.368;9.966;2022-10-12T00:56:31;7.17;;;5.03;;
13743;SDS011;6943;52.368;9.966;2022-10-12T00:58:59;9.70;;;5.00;;
13743;SDS011;6943;52.368;9.966;2022-10-12T01:01:29;8.27;;;4.53;;
13743;SDS011;6943;52.368;9.966;2022-10-12T01:03:58;7.40;;;4.50;;
13743;SDS011;6943;52.368;9.966;2022-10-12T01:06:24;9.47;;;4.80;;
13743;SDS011;6943;52.368;9.966;2022-10-12T01:08:50;9.93;;;5.47;;
13743;SDS011;6943;52.368;9.966;2022-10-12T01:11:18;10.20;;;4.87;;
13743;SDS011;6943;52.368;9.966;2022-10-12T01:13:43;6.17;;;4.10;;
13743;SDS011;6943;52.368;9.966;2022-10-12T01:16:17;10.70;;;5.60;;
13743;SDS011;6943;52.368;9.966;2022-10-12T01:18:45;7.73;;;4.93;;
13743;SDS011;6943;52.368;9.966;2022-10-12T01:21:19;11.90;;;5.23;;
13743;SDS011;6943;52.368;9.966;2022-10-12T01:32:27;10.27;;;5.23;;
13743;SDS011;6943;52.368;9.966;2022-10-12T01:35:07;8.57;;;5.50;;
13743;SDS011;6943;52.368;9.966;2022-10-12T01:40:12;8.50;;;5.47;;
13743;SDS011;6943;52.368;9.966;2022-10-12T01:42:41;8.00;;;5.33;;
13743;SDS011;6943;52.368;9.966;2022-10-12T01:45:12;11.20;;;5.87;;
13743;SDS011;6943;52.368;9.966;2022-10-12T01:47:40;8.83;;;6.10;;
13743;SDS011;6943;52.368;9.966;2022-10-12T01:50:10;8.87;;;5.97;;
13743;SDS011;6943;52.368;9.966;2022-10-12T01:52:58;8.67;;;5.93;;
13743;SDS011;6943;52.368;9.966;2022-10-12T01:55:38;10.20;;;6.00;;
13743;SDS011;6943;52.368;9.966;2022-10-12T02:01:06;10.67;;;6.93;;
13743;SDS011;6943;52.368;9.966;2022-10-12T02:06:33;7.33;;;5.90;;
13743;SDS011;6943;52.368;9.966;2022-10-12T02:09:09;12.27;;;6.23;;
13743;SDS011;6943;52.368;9.966;2022-10-12T02:11:43;7.70;;;5.90;;
13743;SDS011;6943;52.368;9.966;2022-10-12T02:14:14;8.73;;;5.90;;
13743;SDS011;6943;52.368;9.966;2022-10-12T02:16:45;8.27;;;5.53;;
13743;SDS011;6943;52.368;9.966;2022-10-12T02:19:15;7.87;;;6.03;;
13743;SDS011;6943;52.368;9.966;2022-10-12T02:21:44;6.77;;;5.20;;
13743;SDS011;6943;52.368;9.966;2022-10-12T02:24:12;10.20;;;5.13;;
13743;SDS011;6943;52.368;9.966;2022-10-12T02:26:41;9.63;;;5.37;;
13743;SDS011;6943;52.368;9.966;2022-10-12T02:29:33;12.87;;;5.27;;
13743;SDS011;6943;52.368;9.966;2022-10-12T02:32:02;9.87;;;5.03;;
13743;SDS011;6943;52.368;9.966;2022-10-12T02:34:52;9.13;;;5.20;;
13743;SDS011;6943;52.368;9.966;2022-10-12T02:37:39;6.07;;;4.80;;
13743;SDS011;6943;52.368;9.966;2022-10-12T02:40:19;9.17;;;5.13;;
13743;SDS011;6943;52.368;9.966;2022-10-12T02:42:48;7.63;;;5.03;;
13743;SDS011;6943;52.368;9.966;2022-10-12T02:45:17;6.33;;;4.67;;
13743;SDS011;6943;52.368;9.966;2022-10-12T02:47:45;7.17;;;5.40;;
13743;SDS011;6943;52.368;9.966;2022-10-12T02:50:14;8.43;;;5.10;;
13743;SDS011;6943;52.368;9.966;2022-10-12T02:52:41;7.20;;;4.93;;
13743;SDS011;6943;52.368;9.966;2022-10-12T02:55:07;8.57;;;4.70;;
13743;SDS011;6943;52.368;9.966;2022-10-12T02:57:32;6.13;;;4.60;;
13743;SDS011;6943;52.368;9.966;2022-10-12T02:59:58;7.93;;;4.57;;
13743;SDS011;6943;52.368;9.966;2022-10-12T03:02:24;6.40;;;4.63;;
13743;SDS011;6943;52.368;9.966;2022-10-12T03:04:49;6.50;;;4.60;;
13743;SDS011;6943;52.368;9.966;2022-10-12T03:07:15;7.13;;;5.00;;
13743;SDS011;6943;52.368;9.966;2022-10-12T03:09:40;5.60;;;4.43;;
13743;SDS011;6943;52.368;9.966;2022-10-12T03:12:05;4.90;;;3.83;;
13743;SDS011;6943;52.368;9.966;2022-10-12T03:14:31;6.60;;;5.00;;
13743;SDS011;6943;52.368;9.966;2022-10-12T03:16:59;7.90;;;4.83;;
13743;SDS011;6943;52.368;9.966;2022-10-12T03:19:24;6.80;;;4.80;;
13743;SDS011;6943;52.368;9.966;2022-10-12T03:21:50;6.47;;;4.90;;
13743;SDS011;6943;52.368;9.966;2022-10-12T03:24:15;8.90;;;4.67;;
13743;SDS011;6943;52.368;9.966;2022-10-12T03:26:41;9.77;;;5.00;;
13743;SDS011;6943;52.368;9.966;2022-10-12T03:29:06;6.90;;;4.80;;
13743;SDS011;6943;52.368;9.966;2022-10-12T03:31:33;11.87;;;5.77;;
13743;SDS011;6943;52.368;9.966;2022-10-12T03:33:58;5.87;;;5.10;;
13743;SDS011;6943;52.368;9.966;2022-10-12T03:36:24;7.00;;;5.53;;
13743;SDS011;6943;52.368;9.966;2022-10-12T03:38:50;5.20;;;4.73;;
13743;SDS011;6943;52.368;9.966;2022-10-12T03:41:15;7.10;;;4.93;;
13743;SDS011;6943;52.368;9.966;2022-10-12T03:43:41;5.57;;;4.53;;
13743;SDS011;6943;52.368;9.966;2022-10-12T03:46:06;7.23;;;4.43;;
13743;SDS011;6943;52.368;9.966;2022-10-12T03:48:32;6.47;;;4.90;;
13743;SDS011;6943;52.368;9.966;2022-10-12T03:50:57;7.53;;;4.97;;
13743;SDS011;6943;52.368;9.966;2022-10-12T03:53:23;8.23;;;4.90;;
13743;SDS011;6943;52.368;9.966;2022-10-12T03:55:48;7.43;;;4.63;;
13743;SDS011;6943;52.368;9.966;2022-10-12T03:58:14;6.43;;;4.30;;
13743;SDS011;6943;52.368;9.966;2022-10-12T04:00:39;6.70;;;4.67;;
13743;SDS011;6943;52.368;9.966;2022-10-12T04:03:05;5.60;;;4.33;;
13743;SDS011;6943;52.368;9.966;2022-10-12T04:05:31;7.17;;;4.33;;
13743;SDS011;6943;52.368;9.966;2022-10-12T04:07:57;7.07;;;4.97;;
13743;SDS011;6943;52.368;9.966;2022-10-12T04:10:23;5.17;;;4.67;;
13743;SDS011;6943;52.368;9.966;2022-10-12T04:12:48;6.13;;;4.27;;
13743;SDS011;6943;52.368;9.966;2022-10-12T04:15:14;4.77;;;4.20;;
13743;SDS011;6943;52.368;9.966;2022-10-12T04:17:42;5.00;;;4.50;;
13743;SDS011;6943;52.368;9.966;2022-10-12T04:20:08;4.67;;;4.23;;
13743;SDS011;6943;52.368;9.966;2022-10-12T04:22:35;4.67;;;4.27;;
13743;SDS011;6943;52.368;9.966;2022-10-12T04:25:00;4.57;;;4.17;;
13743;SDS011;6943;52.368;9.966;2022-10-12T04:27:26;4.83;;;4.33;;
13743;SDS011;6943;52.368;9.966;2022-10-12T04:29:51;4.27;;;3.87;;
13743;SDS011;6943;52.368;9.966;2022-10-12T04:32:17;4.87;;;3.93;;
13743;SDS011;6943;52.368;9.966;2022-10-12T04:34:43;5.93;;;4.30;;
13743;SDS011;6943;52.368;9.966;2022-10-12T04:37:08;6.07;;;4.40;;
13743;SDS011;6943;52.368;9.966;2022-10-12T04:39:34;6.87;;;4.40;;
13743;SDS011;6943;52.368;9.966;2022-10-12T04:41:59;6.17;;;4.50;;
13743;SDS011;6943;52.368;9.966;2022-10-12T04:44:25;5.27;;;4.33;;
13743;SDS011;6943;52.368;9.966;2022-10-12T04:46:50;5.43;;;4.43;;
13743;SDS011;6943;52.368;9.966;2022-10-12T05:22:57;6.70;;;4.10;;
13743;SDS011;6943;52.368;9.966;2022-10-12T05:25:22;4.87;;;4.37;;
13743;SDS011;6943;52.368;9.966;2022-10-12T05:27:48;3.57;;;3.27;;
13743;SDS011;6943;52.368;9.966;2022-10-12T05:30:13;4.40;;;4.00;;
13743;SDS011;6943;52.368;9.966;2022-10-12T05:32:39;3.97;;;3.53;;
13743;SDS011;6943;52.368;9.966;2022-10-12T05:35:05;4.07;;;3.53;;
13743;SDS011;6943;52.368;9.966;2022-10-12T05:37:31;4.13;;;3.40;;
13743;SDS011;6943;52.368;9.966;2022-10-12T05:39:57;3.93;;;3.53;;
13743;SDS011;6943;52.368;9.966;2022-10-12T05:42:23;5.10;;;3.67;;
13743;SDS011;6943;52.368;9.966;2022-10-12T05:44:48;4.33;;;3.93;;
13743;SDS011;6943;52.368;9.966;2022-10-12T05:47:14;3.33;;;3.00;;
13743;SDS011;6943;52.368;9.966;2022-10-12T05:49:39;4.37;;;2.97;;
13743;SDS011;6943;52.368;9.966;2022-10-12T05:52:05;4.57;;;3.70;;
13743;SDS011;6943;52.368;9.966;2022-10-12T05:54:30;3.97;;;3.40;;
13743;SDS011;6943;52.368;9.966;2022-10-12T05:56:56;4.80;;;4.03;;
13743;SDS011;6943;52.368;9.966;2022-10-12T05:59:21;5.47;;;4.07;;
13743;SDS011;6943;52.368;9.966;2022-10-12T06:01:47;7.37;;;4.33;;
13743;SDS011;6943;52.368;9.966;2022-10-12T06:04:13;4.13;;;3.73;;
13743;SDS011;6943;52.368;9.966;2022-10-12T06:06:39;5.47;;;4.27;;
13743;SDS011;6943;52.368;9.966;2022-10-12T06:09:05;7.37;;;4.40;;
13743;SDS011;6943;52.368;9.966;2022-10-12T06:11:30;5.77;;;4.03;;
13743;SDS011;6943;52.368;9.966;2022-10-12T06:13:56;4.83;;;4.43;;
13743;SDS011;6943;52.368;9.966;2022-10-12T06:16:21;4.53;;;4.07;;
13743;SDS011;6943;52.368;9.966;2022-10-12T06:18:47;6.43;;;4.27;;
13743;SDS011;6943;52.368;9.966;2022-10-12T06:21:13;4.53;;;4.13;;
13743;SDS011;6943;52.368;9.966;2022-10-12T06:23:38;4.97;;;4.27;;
13743;SDS011;6943;52.368;9.966;2022-10-12T06:26:04;6.57;;;5.23;;
13743;SDS011;6943;52.368;9.966;2022-10-12T06:28:29;6.77;;;4.40;;
13743;SDS011;6943;52.368;9.966;2022-10-12T06:30:56;5.77;;;4.20;;
13743;SDS011;6943;52.368;9.966;2022-10-12T06:33:23;5.17;;;4.00;;
13743;SDS011;6943;52.368;9.966;2022-10-12T06:35:49;6.00;;;4.07;;
13743;SDS011;6943;52.368;9.966;2022-10-12T06:38:15;6.23;;;4.30;;
13743;SDS011;6943;52.368;9.966;2022-10-12T06:40:41;6.97;;;4.33;;
13743;SDS011;6943;52.368;9.966;2022-10-12T06:43:07;4.77;;;3.97;;
13743;SDS011;6943;52.368;9.966;2022-10-12T06:45:32;9.03;;;4.60;;
13743;SDS011;6943;52.368;9.966;2022-10-12T06:47:58;4.33;;;3.93;;
13743;SDS011;6943;52.368;9.966;2022-10-12T06:50:24;6.20;;;4.10;;
13743;SDS011;6943;52.368;9.966;2022-10-12T06:52:50;4.10;;;3.70;;
13743;SDS011;6943;52.368;9.966;2022-10-12T06:55:16;6.50;;;3.80;;
13743;SDS011;6943;52.368;9.966;2022-10-12T06:57:42;5.80;;;4.30;;
13743;SDS011;6943;52.368;9.966;2022-10-12T07:00:08;5.27;;;4.47;;
13743;SDS011;6943;52.368;9.966;2022-10-12T07:02:33;6.40;;;4.43;;
13743;SDS011;6943;52.368;9.966;2022-10-12T07:05:00;4.90;;;3.83;;
13743;SDS011;6943;52.368;9.966;2022-10-12T07:07:28;6.93;;;4.43;;
13743;SDS011;6943;52.368;9.966;2022-10-12T07:09:54;7.83;;;4.50;;
13743;SDS011;6943;52.368;9.966;2022-10-12T07:12:20;7.30;;;4.50;;
13743;SDS011;6943;52.368;9.966;2022-10-12T07:14:45;12.40;;;4.47;;
13743;SDS011;6943;52.368;9.966;2022-10-12T07:17:11;5.37;;;4.00;;
13743;SDS011;6943;52.368;9.966;2022-10-12T07:19:36;4.90;;;3.90;;
13743;SDS011;6943;52.368;9.966;2022-10-12T07:22:02;7.97;;;4.17;;
13743;SDS011;6943;52.368;9.966;2022-10-12T07:24:28;7.13;;;3.87;;
13743;SDS011;6943;52.368;9.966;2022-10-12T07:27:00;6.23;;;3.27;;
13743;SDS011;6943;52.368;9.966;2022-10-12T07:29:26;5.83;;;3.70;;
13743;SDS011;6943;52.368;9.966;2022-10-12T07:31:54;8.27;;;3.20;;
13743;SDS011;6943;52.368;9.966;2022-10-12T07:34:20;4.77;;;3.03;;
13743;SDS011;6943;52.368;9.966;2022-10-12T07:36:46;5.77;;;2.97;;
13743;SDS011;6943;52.368;9.966;2022-10-12T07:39:11;6.10;;;3.57;;
13743;SDS011;6943;52.368;9.966;2022-10-12T07:41:37;6.17;;;3.00;;
13743;SDS011;6943;52.368;9.966;2022-10-12T07:44:02;6.03;;;3.27;;
13743;SDS011;6943;52.368;9.966;2022-10-12T07:46:28;4.10;;;3.10;;
13743;SDS011;6943;52.368;9.966;2022-10-12T07:48:53;6.23;;;3.20;;
13743;SDS011;6943;52.368;9.966;2022-10-12T07:51:19;6.37;;;3.63;;
13743;SDS011;6943;52.368;9.966;2022-10-12T07:53:44;5.23;;;3.20;;
13743;SDS011;6943;52.368;9.966;2022-10-12T07:56:10;5.23;;;3.00;;
13743;SDS011;6943;52.368;9.966;2022-10-12T07:58:41;5.53;;;3.60;;
13743;SDS011;6943;52.368;9.966;2022-10-12T08:01:17;7.63;;;3.20;;
13743;SDS011;6943;52.368;9.966;2022-10-12T08:03:44;5.27;;;3.23;;
13743;SDS011;6943;52.368;9.966;2022-10-12T08:06:11;7.80;;;3.53;;
13743;SDS011;6943;52.368;9.966;2022-10-12T08:08:39;7.97;;;3.23;;
13743;SDS011;6943;52.368;9.966;2022-10-12T08:11:06;10.57;;;3.10;;
13743;SDS011;6943;52.368;9.966;2022-10-12T08:13:33;5.63;;;3.23;;
13743;SDS011;6943;52.368;9.966;2022-10-12T08:15:59;6.17;;;3.10;;
13743;SDS011;6943;52.368;9.966;2022-10-12T08:18:25;4.80;;;2.87;;
13743;SDS011;6943;52.368;9.966;2022-10-12T08:20:51;8.20;;;3.50;;
13743;SDS011;6943;52.368;9.966;2022-10-12T08:23:17;6.80;;;3.37;;
13743;SDS011;6943;52.368;9.966;2022-10-12T08:25:49;6.57;;;3.27;;
13743;SDS011;6943;52.368;9.966;2022-10-12T08:28:16;11.23;;;3.67;;
13743;SDS011;6943;52.368;9.966;2022-10-12T08:30:41;5.43;;;2.83;;
13743;SDS011;6943;52.368;9.966;2022-10-12T08:33:07;7.30;;;3.73;;
13743;SDS011;6943;52.368;9.966;2022-10-12T08:35:32;8.13;;;4.30;;
13743;SDS011;6943;52.368;9.966;2022-10-12T08:37:58;6.33;;;3.70;;
13743;SDS011;6943;52.368;9.966;2022-10-12T08:40:24;9.47;;;3.20;;
13743;SDS011;6943;52.368;9.966;2022-10-12T08:42:55;7.37;;;3.50;;
13743;SDS011;6943;52.368;9.966;2022-10-12T08:45:34;9.07;;;3.67;;
13743;SDS011;6943;52.368;9.966;2022-10-12T08:48:13;5.93;;;3.30;;
13743;SDS011;6943;52.368;9.966;2022-10-12T08:51:01;8.23;;;3.30;;
13743;SDS011;6943;52.368;9.966;2022-10-12T08:55:56;9.00;;;3.80;;
13743;SDS011;6943;52.368;9.966;2022-10-12T08:58:32;5.73;;;2.87;;
13743;SDS011;6943;52.368;9.966;2022-10-12T09:04:03;7.40;;;3.53;;
13743;SDS011;6943;52.368;9.966;2022-10-12T09:06:43;9.63;;;3.60;;
13743;SDS011;6943;52.368;9.966;2022-10-12T09:09:17;8.00;;;3.60;;
13743;SDS011;6943;52.368;9.966;2022-10-12T09:12:03;10.73;;;3.40;;
13743;SDS011;6943;52.368;9.966;2022-10-12T09:14:38;6.83;;;3.40;;
13743;SDS011;6943;52.368;9.966;2022-10-12T09:19:46;7.90;;;3.70;;
13743;SDS011;6943;52.368;9.966;2022-10-12T09:22:15;10.53;;;4.20;;
13743;SDS011;6943;52.368;9.966;2022-10-12T09:24:43;7.57;;;4.10;;
13743;SDS011;6943;52.368;9.966;2022-10-12T09:27:12;10.70;;;4.03;;
13743;SDS011;6943;52.368;9.966;2022-10-12T09:29:39;12.07;;;4.43;;
13743;SDS011;6943;52.368;9.966;2022-10-12T09:34:34;9.47;;;3.77;;
13743;SDS011;6943;52.368;9.966;2022-10-12T09:37:00;14.87;;;3.93;;
13743;SDS011;6943;52.368;9.966;2022-10-12T09:39:31;6.70;;;3.77;;
13743;SDS011;6943;52.368;9.966;2022-10-12T09:41:59;10.07;;;3.93;;
13743;SDS011;6943;52.368;9.966;2022-10-12T09:49:51;7.13;;;3.93;;
13743;SDS011;6943;52.368;9.966;2022-10-12T09:52:23;13.03;;;4.77;;
13743;SDS011;6943;52.368;9.966;2022-10-12T09:54:56;12.97;;;4.30;;
13743;SDS011;6943;52.368;9.966;2022-10-12T09:57:29;10.80;;;3.67;;
13743;SDS011;6943;52.368;9.966;2022-10-12T09:59:59;9.17;;;3.80;;
13743;SDS011;6943;52.368;9.966;2022-10-12T10:02:30;8.33;;;4.60;;
13743;SDS011;6943;52.368;9.966;2022-10-12T10:05:13;12.70;;;4.37;;
13743;SDS011;6943;52.368;9.966;2022-10-12T10:11:02;10.53;;;3.50;;
13743;SDS011;6943;52.368;9.966;2022-10-12T10:13:29;5.77;;;2.53;;
13743;SDS011;6943;52.368;9.966;2022-10-12T10:18:49;9.30;;;3.83;;
13743;SDS011;6943;52.368;9.966;2022-10-12T10:21:24;10.43;;;3.47;;
13743;SDS011;6943;52.368;9.966;2022-10-12T10:23:57;9.90;;;3.70;;
13743;SDS011;6943;52.368;9.966;2022-10-12T10:26:28;6.53;;;3.10;;
13743;SDS011;6943;52.368;9.966;2022-10-12T10:29:15;8.87;;;3.23;;
13743;SDS011;6943;52.368;9.966;2022-10-12T10:32:25;8.07;;;2.83;;
13743;SDS011;6943;52.368;9.966;2022-10-12T10:35:00;7.60;;;2.47;;
13743;SDS011;6943;52.368;9.966;2022-10-12T10:37:27;8.47;;;2.40;;
13743;SDS011;6943;52.368;9.966;2022-10-12T10:39:54;16.13;;;3.37;;
13743;SDS011;6943;52.368;9.966;2022-10-12T10:42:26;6.63;;;2.40;;
13743;SDS011;6943;52.368;9.966;2022-10-12T10:44:59;6.40;;;2.13;;
13743;SDS011;6943;52.368;9.966;2022-10-12T10:47:28;6.23;;;2.43;;
13743;SDS011;6943;52.368;9.966;2022-10-12T10:49:56;7.73;;;2.50;;
13743;SDS011;6943;52.368;9.966;2022-10-12T10:52:25;9.57;;;2.47;;
13743;SDS011;6943;52.368;9.966;2022-10-12T10:57:39;11.53;;;2.93;;
13743;SDS011;6943;52.368;9.966;2022-10-12T11:00:18;8.30;;;2.60;;
13743;SDS011;6943;52.368;9.966;2022-10-12T11:05:46;11.63;;;2.73;;
13743;SDS011;6943;52.368;9.966;2022-10-12T11:08:16;7.83;;;2.70;;
13743;SDS011;6943;52.368;9.966;2022-10-12T11:13:52;4.37;;;2.30;;
13743;SDS011;6943;52.368;9.966;2022-10-12T11:19:11;8.57;;;2.83;;
13743;SDS011;6943;52.368;9.966;2022-10-12T11:21:43;8.80;;;2.53;;
13743;SDS011;6943;52.368;9.966;2022-10-12T11:24:12;8.93;;;2.50;;
13743;SDS011;6943;52.368;9.966;2022-10-12T11:26:47;10.57;;;2.93;;
13743;SDS011;6943;52.368;9.966;2022-10-12T11:29:14;8.13;;;2.50;;
13743;SDS011;6943;52.368;9.966;2022-10-12T11:31:42;6.30;;;2.40;;
13743;SDS011;6943;52.368;9.966;2022-10-12T11:34:17;5.77;;;2.10;;
13743;SDS011;6943;52.368;9.966;2022-10-12T11:36:46;8.30;;;2.33;;
13743;SDS011;6943;52.368;9.966;2022-10-12T11:39:18;5.63;;;2.10;;
13743;SDS011;6943;52.368;9.966;2022-10-12T11:41:51;4.90;;;1.87;;
13743;SDS011;6943;52.368;9.966;2022-10-12T11:46:59;6.50;;;2.20;;
13743;SDS011;6943;52.368;9.966;2022-10-12T11:52:07;9.13;;;2.27;;
13743;SDS011;6943;52.368;9.966;2022-10-12T11:57:14;7.53;;;2.30;;
13743;SDS011;6943;52.368;9.966;2022-10-12T11:59:45;7.20;;;2.30;;
13743;SDS011;6943;52.368;9.966;2022-10-12T12:02:21;8.33;;;2.17;;
13743;SDS011;6943;52.368;9.966;2022-10-12T12:04:50;8.90;;;2.73;;
13743;SDS011;6943;52.368;9.966;2022-10-12T12:13:07;10.17;;;2.47;;
13743;SDS011;6943;52.368;9.966;2022-10-12T12:18:12;4.10;;;1.90;;
13743;SDS011;6943;52.368;9.966;2022-10-12T12:23:19;7.63;;;1.83;;
13743;SDS011;6943;52.368;9.966;2022-10-12T12:28:33;6.63;;;2.73;;
13743;SDS011;6943;52.368;9.966;2022-10-12T12:31:06;7.27;;;2.20;;
13743;SDS011;6943;52.368;9.966;2022-10-12T12:33:40;5.40;;;2.13;;
13743;SDS011;6943;52.368;9.966;2022-10-12T12:36:13;7.93;;;2.37;;
13743;SDS011;6943;52.368;9.966;2022-10-12T12:38:56;7.27;;;2.17;;
13743;SDS011;6943;52.368;9.966;2022-10-12T12:41:26;6.87;;;2.13;;
13743;SDS011;6943;52.368;9.966;2022-10-12T12:44:35;6.80;;;2.10;;
13743;SDS011;6943;52.368;9.966;2022-10-12T12:49:42;6.77;;;2.27;;
13743;SDS011;6943;52.368;9.966;2022-10-12T12:52:18;5.70;;;1.80;;
13743;SDS011;6943;52.368;9.966;2022-10-12T13:03:35;5.07;;;1.77;;
13743;SDS011;6943;52.368;9.966;2022-10-12T13:09:27;5.73;;;2.17;;
13743;SDS011;6943;52.368;9.966;2022-10-12T13:15:10;4.23;;;1.40;;
13743;SDS011;6943;52.368;9.966;2022-10-12T13:17:49;5.30;;;1.80;;
13743;SDS011;6943;52.368;9.966;2022-10-12T13:20:30;7.83;;;2.17;;
13743;SDS011;6943;52.368;9.966;2022-10-12T13:22:57;7.43;;;2.10;;
13743;SDS011;6943;52.368;9.966;2022-10-12T13:25:28;7.63;;;2.20;;
13743;SDS011;6943;52.368;9.966;2022-10-12T13:28:01;4.40;;;1.73;;
13743;SDS011;6943;52.368;9.966;2022-10-12T13:30:44;6.77;;;2.37;;
13743;SDS011;6943;52.368;9.966;2022-10-12T13:33:35;5.73;;;1.90;;
13743;SDS011;6943;52.368;9.966;2022-10-12T13:36:11;5.10;;;1.47;;
13743;SDS011;6943;52.368;9.966;2022-10-12T13:38:45;4.67;;;1.90;;
13743;SDS011;6943;52.368;9.966;2022-10-12T13:41:14;8.27;;;1.77;;
13743;SDS011;6943;52.368;9.966;2022-10-12T13:43:52;4.60;;;2.00;;
13743;SDS011;6943;52.368;9.966;2022-10-12T13:48:58;5.33;;;1.80;;
13743;SDS011;6943;52.368;9.966;2022-10-12T13:51:25;3.20;;;1.60;;
13743;SDS011;6943;52.368;9.966;2022-10-12T13:53:52;4.10;;;1.90;;
13743;SDS011;6943;52.368;9.966;2022-10-12T13:56:24;4.47;;;2.00;;
13743;SDS011;6943;52.368;9.966;2022-10-12T13:58:54;4.17;;;2.03;;
13743;SDS011;6943;52.368;9.966;2022-10-12T14:01:22;5.57;;;2.00;;
13743;SDS011;6943;52.368;9.966;2022-10-12T14:03:48;6.17;;;2.20;;
13743;SDS011;6943;52.368;9.966;2022-10-12T14:06:26;5.80;;;1.93;;
13743;SDS011;6943;52.368;9.966;2022-10-12T14:08:58;5.63;;;1.90;;
13743;SDS011;6943;52.368;9.966;2022-10-12T14:11:31;9.93;;;2.37;;
13743;SDS011;6943;52.368;9.966;2022-10-12T14:13:58;5.37;;;1.73;;
13743;SDS011;6943;52.368;9.966;2022-10-12T14:16:24;6.43;;;2.00;;
13743;SDS011;6943;52.368;9.966;2022-10-12T14:18:49;3.83;;;1.73;;
13743;SDS011;6943;52.368;9.966;2022-10-12T14:21:19;9.23;;;2.10;;
13743;SDS011;6943;52.368;9.966;2022-10-12T14:23:50;4.43;;;1.80;;
13743;SDS011;6943;52.368;9.966;2022-10-12T14:26:25;6.80;;;2.00;;
13743;SDS011;6943;52.368;9.966;2022-10-12T14:28:52;4.47;;;2.00;;
13743;SDS011;6943;52.368;9.966;2022-10-12T14:31:41;5.70;;;1.90;;
13743;SDS011;6943;52.368;9.966;2022-10-12T14:36:58;8.67;;;2.07;;
13743;SDS011;6943;52.368;9.966;2022-10-12T14:39:29;5.47;;;1.80;;
13743;SDS011;6943;52.368;9.966;2022-10-12T14:41:55;6.57;;;2.20;;
13743;SDS011;6943;52.368;9.966;2022-10-12T14:44:22;4.73;;;1.87;;
13743;SDS011;6943;52.368;9.966;2022-10-12T14:46:51;7.40;;;2.03;;
13743;SDS011;6943;52.368;9.966;2022-10-12T14:49:20;8.73;;;2.53;;
13743;SDS011;6943;52.368;9.966;2022-10-12T14:51:49;7.20;;;1.83;;
13743;SDS011;6943;52.368;9.966;2022-10-12T14:54:16;7.73;;;2.30;;
13743;SDS011;6943;52.368;9.966;2022-10-12T14:56:42;5.73;;;2.07;;
13743;SDS011;6943;52.368;9.966;2022-10-12T14:59:07;8.80;;;2.70;;
13743;SDS011;6943;52.368;9.966;2022-10-12T15:01:33;5.70;;;1.90;;
13743;SDS011;6943;52.368;9.966;2022-10-12T15:03:59;6.23;;;1.87;;
13743;SDS011;6943;52.368;9.966;2022-10-12T15:06:24;8.33;;;2.10;;
13743;SDS011;6943;52.368;9.966;2022-10-12T15:08:50;4.23;;;1.87;;
13743;SDS011;6943;52.368;9.966;2022-10-12T15:11:16;4.70;;;1.93;;
13743;SDS011;6943;52.368;9.966;2022-10-12T15:13:42;6.33;;;2.30;;
13743;SDS011;6943;52.368;9.966;2022-10-12T15:16:15;6.20;;;2.27;;
13743;SDS011;6943;52.368;9.966;2022-10-12T15:18:45;6.17;;;1.77;;
13743;SDS011;6943;52.368;9.966;2022-10-12T15:21:11;9.77;;;2.27;;
13743;SDS011;6943;52.368;9.966;2022-10-12T15:23:36;5.07;;;2.10;;
13743;SDS011;6943;52.368;9.966;2022-10-12T15:26:02;8.97;;;2.67;;
13743;SDS011;6943;52.368;9.966;2022-10-12T15:28:28;7.33;;;2.70;;
13743;SDS011;6943;52.368;9.966;2022-10-12T15:30:57;4.27;;;1.80;;
13743;SDS011;6943;52.368;9.966;2022-10-12T15:33:24;8.30;;;2.10;;
13743;SDS011;6943;52.368;9.966;2022-10-12T15:35:50;8.30;;;2.73;;
13743;SDS011;6943;52.368;9.966;2022-10-12T15:38:15;7.10;;;2.53;;
13743;SDS011;6943;52.368;9.966;2022-10-12T15:40:42;8.40;;;2.03;;
13743;SDS011;6943;52.368;9.966;2022-10-12T15:43:10;3.83;;;1.90;;
13743;SDS011;6943;52.368;9.966;2022-10-12T15:45:36;6.87;;;2.07;;
13743;SDS011;6943;52.368;9.966;2022-10-12T15:48:04;6.40;;;2.00;;
13743;SDS011;6943;52.368;9.966;2022-10-12T15:50:35;7.23;;;2.27;;
13743;SDS011;6943;52.368;9.966;2022-10-12T15:53:07;6.57;;;2.20;;
13743;SDS011;6943;52.368;9.966;2022-10-12T15:55:34;6.87;;;2.80;;
13743;SDS011;6943;52.368;9.966;2022-10-12T15:58:00;7.00;;;3.23;;
13743;SDS011;6943;52.368;9.966;2022-10-12T16:00:27;6.33;;;2.03;;
13743;SDS011;6943;52.368;9.966;2022-10-12T16:02:54;7.37;;;2.50;;
13743;SDS011;6943;52.368;9.966;2022-10-12T16:05:25;8.60;;;2.50;;
13743;SDS011;6943;52.368;9.966;2022-10-12T16:07:55;6.73;;;2.13;;
13743;SDS011;6943;52.368;9.966;2022-10-12T16:10:22;6.90;;;2.03;;
13743;SDS011;6943;52.368;9.966;2022-10-12T16:12:51;6.83;;;2.73;;
13743;SDS011;6943;52.368;9.966;2022-10-12T16:15:18;12.27;;;2.70;;
13743;SDS011;6943;52.368;9.966;2022-10-12T16:17:46;9.63;;;2.30;;
13743;SDS011;6943;52.368;9.966;2022-10-12T16:20:12;5.87;;;2.23;;
13743;SDS011;6943;52.368;9.966;2022-10-12T16:22:38;6.23;;;2.47;;
13743;SDS011;6943;52.368;9.966;2022-10-12T16:25:05;5.43;;;2.17;;
13743;SDS011;6943;52.368;9.966;2022-10-12T16:27:33;10.13;;;2.63;;
13743;SDS011;6943;52.368;9.966;2022-10-12T16:29:59;4.97;;;2.20;;
13743;SDS011;6943;52.368;9.966;2022-10-12T16:32:24;6.80;;;1.97;;
13743;SDS011;6943;52.368;9.966;2022-10-12T16:34:51;8.57;;;2.67;;
13743;SDS011;6943;52.368;9.966;2022-10-12T16:37:17;8.57;;;2.80;;
13743;SDS011;6943;52.368;9.966;2022-10-12T16:39:42;7.63;;;2.30;;
13743;SDS011;6943;52.368;9.966;2022-10-12T16:42:08;8.17;;;2.53;;
13743;SDS011;6943;52.368;9.966;2022-10-12T16:44:34;7.10;;;2.33;;
13743;SDS011;6943;52.368;9.966;2022-10-12T16:46:59;6.77;;;2.53;;
13743;SDS011;6943;52.368;9.966;2022-10-12T16:49:26;6.53;;;2.57;;
13743;SDS011;6943;52.368;9.966;2022-10-12T16:51:52;8.87;;;2.73;;
13743;SDS011;6943;52.368;9.966;2022-10-12T16:54:17;5.40;;;2.50;;
13743;SDS011;6943;52.368;9.966;2022-10-12T16:56:43;7.07;;;3.20;;
13743;SDS011;6943;52.368;9.966;2022-10-12T16:59:08;6.57;;;2.77;;
13743;SDS011;6943;52.368;9.966;2022-10-12T17:01:34;7.53;;;3.47;;
13743;SDS011;6943;52.368;9.966;2022-10-12T17:03:59;8.17;;;4.50;;
13743;SDS011;6943;52.368;9.966;2022-10-12T17:06:26;7.77;;;3.23;;
13743;SDS011;6943;52.368;9.966;2022-10-12T17:08:52;6.27;;;2.80;;
13743;SDS011;6943;52.368;9.966;2022-10-12T17:11:18;6.13;;;2.70;;
13743;SDS011;6943;52.368;9.966;2022-10-12T17:13:45;7.33;;;3.33;;
13743;SDS011;6943;52.368;9.966;2022-10-12T17:16:11;7.27;;;3.20;;
13743;SDS011;6943;52.368;9.966;2022-10-12T17:18:56;5.40;;;2.70;;
13743;SDS011;6943;52.368;9.966;2022-10-12T17:21:22;8.03;;;3.87;;